createdAt,value
2018-04-29T00:02:25.267Z,11.50
2018-04-29T00:04:53.328Z,10.77
2018-04-29T00:07:21.408Z,11.20
2018-04-29T00:09:49.465Z,13.00
2018-04-29T00:12:17.644Z,14.67
2018-04-29T00:14:45.706Z,11.23
2018-04-29T00:17:13.799Z,27.97
2018-04-29T00:19:41.894Z,12.20
2018-04-29T00:22:10.061Z,10.50
2018-04-29T00:24:38.118Z,11.87
2018-04-29T00:27:06.591Z,10.60
2018-04-29T00:29:34.645Z,11.00
2018-04-29T00:32:02.729Z,11.33
2018-04-29T00:34:30.809Z,11.30
2018-04-29T00:36:58.978Z,11.03
2018-04-29T00:39:27.054Z,10.20
2018-04-29T00:41:55.130Z,10.77
2018-04-29T00:44:23.171Z,11.73
2018-04-29T00:46:51.244Z,10.40
2018-04-29T00:49:19.353Z,10.37
2018-04-29T00:52:00.000Z,11.53
2018-04-29T00:54:28.066Z,11.10
2018-04-29T00:56:56.119Z,10.13
2018-04-29T00:59:24.462Z,11.07
2018-04-29T01:01:52.481Z,10.60
2018-04-29T01:04:20.550Z,12.93
2018-04-29T01:06:48.585Z,10.83
2018-04-29T01:09:17.480Z,11.10
2018-04-29T01:11:45.578Z,10.00
2018-04-29T01:14:13.678Z,11.20
2018-04-29T01:16:41.728Z,11.63
2018-04-29T01:19:09.775Z,11.20
2018-04-29T01:21:37.863Z,11.53
2018-04-29T01:24:05.901Z,12.60
2018-04-29T01:26:34.732Z,12.00
2018-04-29T01:29:02.793Z,13.10
2018-04-29T01:31:30.843Z,14.27
2018-04-29T01:33:58.933Z,14.70
2018-04-29T01:36:27.016Z,13.10
2018-04-29T01:38:55.081Z,13.80
2018-04-29T01:41:23.211Z,14.93
2018-04-29T01:43:52.027Z,14.60
2018-04-29T01:46:20.098Z,14.00
2018-04-29T01:48:48.195Z,14.87
2018-04-29T01:51:16.398Z,13.90
2018-04-29T01:53:44.533Z,15.40
2018-04-29T01:56:12.589Z,15.03
2018-04-29T01:58:40.658Z,14.90
2018-04-29T02:01:09.136Z,15.13
2018-04-29T02:03:37.936Z,15.37
2018-04-29T02:06:05.997Z,15.83
2018-04-29T02:08:34.060Z,15.70
2018-04-29T02:11:02.185Z,16.33
2018-04-29T02:13:30.252Z,15.57
2018-04-29T02:15:58.311Z,16.43
2018-04-29T02:18:26.369Z,16.20
2018-04-29T02:20:55.189Z,16.00
2018-04-29T02:23:23.365Z,15.30
2018-04-29T02:25:51.385Z,16.33
2018-04-29T02:28:20.293Z,14.60
2018-04-29T02:30:48.370Z,16.00
2018-04-29T02:33:16.434Z,15.97
2018-04-29T02:35:44.487Z,17.10
2018-04-29T02:38:13.291Z,21.40
2018-04-29T02:40:41.360Z,20.93
2018-04-29T02:43:09.421Z,27.10
2018-04-29T02:45:37.466Z,19.23
2018-04-29T02:48:06.421Z,17.60
2018-04-29T02:50:34.490Z,17.20
2018-04-29T02:53:02.538Z,16.60
2018-04-29T02:55:30.656Z,16.80
2018-04-29T02:57:58.828Z,17.93
2018-04-29T03:00:26.899Z,17.53
2018-04-29T03:02:54.946Z,17.23
2018-04-29T03:05:23.032Z,16.37
2018-04-29T03:07:51.098Z,17.60
2018-04-29T03:10:19.167Z,15.83
2018-04-29T03:12:47.242Z,16.07
2018-04-29T03:15:15.311Z,15.43
2018-04-29T03:17:43.349Z,16.40
2018-04-29T03:20:11.441Z,16.27
2018-04-29T03:22:39.541Z,16.37
2018-04-29T03:25:07.614Z,16.20
2018-04-29T03:27:35.752Z,15.70
2018-04-29T03:30:03.846Z,15.97
2018-04-29T03:32:31.946Z,16.07
2018-04-29T03:35:00.115Z,17.07
2018-04-29T03:37:28.176Z,15.70
2018-04-29T03:39:56.250Z,15.70
2018-04-29T03:42:24.399Z,15.23
2018-04-29T03:44:52.488Z,15.70
2018-04-29T03:47:20.571Z,17.20
2018-04-29T03:49:48.653Z,15.93
2018-04-29T03:52:16.731Z,16.30
2018-04-29T03:54:45.554Z,16.93
2018-04-29T03:57:25.615Z,15.93
2018-04-29T04:00:05.977Z,18.20
2018-04-29T04:02:46.059Z,18.63
2018-04-29T04:05:14.824Z,16.40
2018-04-29T04:07:42.888Z,16.47
2018-04-29T04:10:10.941Z,16.27
2018-04-29T04:12:39.032Z,14.90
2018-04-29T04:15:07.075Z,15.80
2018-04-29T04:17:35.198Z,16.30
2018-04-29T04:20:03.392Z,17.10
2018-04-29T04:22:31.445Z,17.30
2018-04-29T04:24:59.478Z,16.40
2018-04-29T04:27:28.314Z,16.23
2018-04-29T04:29:56.377Z,15.20
2018-04-29T04:32:24.509Z,14.90
2018-04-29T04:34:52.549Z,14.87
2018-04-29T04:37:22.130Z,15.00
2018-04-29T04:39:50.214Z,15.10
2018-04-29T04:42:18.372Z,15.60
2018-04-29T04:44:46.406Z,15.10
2018-04-29T04:47:14.506Z,14.57
2018-04-29T04:49:42.577Z,15.20
2018-04-29T04:52:10.623Z,15.57
2018-04-29T04:54:38.720Z,15.37
2018-04-29T04:57:06.786Z,15.80
2018-04-29T04:59:34.949Z,14.33
2018-04-29T05:02:03.171Z,14.80
2018-04-29T05:04:31.170Z,14.73
2018-04-29T05:06:59.251Z,14.83
2018-04-29T05:09:27.294Z,13.63
2018-04-29T05:11:56.192Z,14.50
2018-04-29T05:14:24.213Z,14.10
2018-04-29T05:16:52.285Z,14.03
2018-04-29T05:19:20.332Z,13.77
2018-04-29T05:21:48.403Z,13.70
2018-04-29T05:24:17.270Z,11.37
2018-04-29T05:26:45.698Z,12.10
2018-04-29T05:29:14.585Z,11.83
2018-04-29T05:31:42.710Z,12.80
2018-04-29T05:34:11.130Z,12.30
2018-04-29T05:36:39.184Z,10.97
2018-04-29T05:39:07.275Z,10.90
2018-04-29T05:41:35.854Z,11.47
2018-04-29T05:44:03.934Z,10.40
2018-04-29T05:46:31.991Z,9.67
2018-04-29T05:49:00.048Z,10.50
2018-04-29T05:51:28.102Z,8.60
2018-04-29T05:53:56.157Z,9.17
2018-04-29T05:56:24.287Z,8.40
2018-04-29T05:58:52.370Z,8.90
2018-04-29T06:01:20.433Z,9.03
2018-04-29T06:03:49.349Z,9.10
2018-04-29T06:06:17.423Z,7.77
2018-04-29T06:08:45.549Z,9.20
2018-04-29T06:11:14.459Z,7.70
2018-04-29T06:13:42.517Z,8.30
2018-04-29T06:16:10.965Z,8.03
2018-04-29T06:18:39.044Z,7.60
2018-04-29T06:21:07.074Z,8.23
2018-04-29T06:23:35.110Z,8.30
2018-04-29T06:26:03.753Z,7.70
2018-04-29T06:28:31.974Z,7.17
2018-04-29T06:31:00.023Z,7.47
2018-04-29T06:33:28.108Z,7.77
2018-04-29T06:35:56.153Z,6.90
2018-04-29T06:38:24.225Z,7.77
2018-04-29T06:40:52.281Z,7.27
2018-04-29T06:43:21.116Z,7.60
2018-04-29T06:45:49.181Z,7.40
2018-04-29T06:48:17.215Z,7.33
2018-04-29T06:50:45.315Z,6.63
2018-04-29T06:53:13.376Z,6.87
2018-04-29T06:55:41.471Z,7.10
2018-04-29T06:58:09.512Z,8.67
2018-04-29T07:00:37.574Z,8.47
2018-04-29T07:03:06.568Z,9.30
2018-04-29T07:05:36.160Z,9.03
2018-04-29T07:08:04.266Z,10.10
2018-04-29T07:10:32.409Z,12.30
2018-04-29T07:13:01.221Z,10.47
2018-04-29T07:15:29.289Z,10.00
2018-04-29T07:17:58.155Z,10.90
2018-04-29T07:20:26.193Z,7.93
2018-04-29T07:22:54.270Z,7.30
2018-04-29T07:25:22.336Z,8.10
2018-04-29T07:27:50.385Z,7.63
2018-04-29T07:30:18.583Z,8.33
2018-04-29T07:32:47.317Z,8.67
2018-04-29T07:35:16.134Z,7.50
2018-04-29T07:37:44.240Z,7.90
2018-04-29T07:40:12.486Z,7.50
2018-04-29T07:42:40.478Z,7.97
2018-04-29T07:45:09.918Z,7.00
2018-04-29T07:47:37.950Z,6.90
2018-04-29T07:50:06.130Z,7.10
2018-04-29T07:52:34.258Z,8.20
2018-04-29T07:55:02.260Z,5.87
2018-04-29T07:57:30.323Z,6.20
2018-04-29T07:59:58.409Z,6.30
2018-04-29T08:02:26.482Z,5.27
2018-04-29T08:04:54.547Z,5.57
2018-04-29T08:07:22.666Z,6.27
2018-04-29T08:09:50.798Z,5.83
2018-04-29T08:12:18.878Z,5.07
2018-04-29T08:14:46.962Z,5.73
2018-04-29T08:17:15.019Z,5.07
2018-04-29T08:19:43.121Z,4.67
2018-04-29T08:22:12.026Z,5.27
2018-04-29T08:24:40.045Z,4.90
2018-04-29T08:27:08.155Z,5.13
2018-04-29T08:29:36.995Z,4.27
2018-04-29T08:32:05.091Z,5.07
2018-04-29T08:34:33.173Z,5.30
2018-04-29T08:37:01.230Z,5.80
2018-04-29T08:39:29.294Z,5.13
2018-04-29T08:41:57.427Z,5.00
2018-04-29T08:44:25.453Z,6.50
2018-04-29T08:46:53.613Z,5.50
2018-04-29T08:49:21.729Z,5.50
2018-04-29T08:51:50.666Z,4.80
2018-04-29T08:54:18.679Z,5.70
2018-04-29T08:56:47.514Z,6.30
2018-04-29T08:59:15.574Z,4.80
2018-04-29T09:01:44.325Z,4.43
2018-04-29T09:04:12.374Z,4.57
2018-04-29T09:06:40.415Z,5.20
2018-04-29T09:09:09.386Z,4.90
2018-04-29T09:11:38.226Z,4.33
2018-04-29T09:14:06.294Z,5.17
2018-04-29T09:16:35.106Z,5.20
2018-04-29T09:19:03.167Z,5.30
2018-04-29T09:21:31.219Z,5.57
2018-04-29T09:23:59.295Z,5.90
2018-04-29T09:26:27.365Z,5.30
2018-04-29T09:28:55.425Z,5.70
2018-04-29T09:31:23.482Z,5.37
2018-04-29T09:33:51.549Z,5.70
2018-04-29T09:36:19.649Z,5.30
2018-04-29T09:38:47.720Z,4.80
2018-04-29T09:41:15.751Z,5.70
2018-04-29T09:43:43.904Z,5.20
2018-04-29T09:46:11.926Z,6.00
2018-04-29T09:48:40.044Z,4.90
2018-04-29T09:51:08.054Z,6.00
2018-04-29T09:53:36.112Z,5.53
2018-04-29T09:56:04.163Z,5.70
2018-04-29T09:58:32.993Z,4.93
2018-04-29T10:01:01.100Z,5.53
2018-04-29T10:03:29.083Z,5.90
2018-04-29T10:05:57.132Z,5.57
2018-04-29T10:08:25.197Z,5.60
2018-04-29T10:10:53.646Z,5.90
2018-04-29T10:13:21.688Z,5.43
2018-04-29T10:15:49.746Z,5.87
2018-04-29T10:18:18.591Z,6.40
2018-04-29T10:20:46.669Z,5.90
2018-04-29T10:23:14.731Z,6.97
2018-04-29T10:25:42.798Z,6.27
2018-04-29T10:28:10.870Z,6.30
2018-04-29T10:30:38.937Z,6.73
2018-04-29T10:33:07.021Z,7.30
2018-04-29T10:35:35.158Z,5.80
2018-04-29T10:38:03.163Z,5.10
2018-04-29T10:40:31.230Z,5.53
2018-04-29T10:42:59.292Z,6.20
2018-04-29T10:45:27.344Z,5.87
2018-04-29T10:47:55.420Z,5.90
2018-04-29T10:50:23.467Z,5.57
2018-04-29T10:52:52.295Z,6.90
2018-04-29T10:55:20.354Z,6.27
2018-04-29T10:57:48.397Z,5.77
2018-04-29T11:00:17.339Z,6.20
2018-04-29T11:02:45.386Z,5.00
2018-04-29T11:05:13.445Z,6.10
2018-04-29T11:07:41.509Z,4.33
2018-04-29T11:10:10.318Z,5.50
2018-04-29T11:12:38.362Z,5.70
2018-04-29T11:15:07.196Z,5.50
2018-04-29T11:17:35.367Z,5.00
2018-04-29T11:20:03.552Z,5.10
2018-04-29T11:22:31.610Z,6.10
2018-04-29T11:24:59.661Z,5.50
2018-04-29T11:27:28.477Z,5.33
2018-04-29T11:29:56.567Z,6.20
2018-04-29T11:32:24.660Z,5.20
2018-04-29T11:34:52.752Z,5.80
2018-04-29T11:37:21.559Z,5.77
2018-04-29T11:39:49.613Z,6.27
2018-04-29T11:42:18.457Z,6.30
2018-04-29T11:44:46.527Z,6.10
2018-04-29T11:47:14.584Z,5.80
2018-04-29T11:49:42.656Z,5.43
2018-04-29T11:52:10.712Z,6.00
2018-04-29T11:54:38.772Z,6.00
2018-04-29T11:57:06.944Z,5.27
2018-04-29T11:59:35.651Z,5.27
2018-04-29T12:02:03.739Z,5.57
2018-04-29T12:04:31.897Z,6.43
2018-04-29T12:06:59.944Z,6.87
2018-04-29T12:09:27.999Z,6.37
2018-04-29T12:11:56.872Z,5.50
2018-04-29T12:14:24.947Z,5.30
2018-04-29T12:16:53.085Z,4.97
2018-04-29T12:19:21.156Z,5.77
2018-04-29T12:21:50.077Z,5.20
2018-04-29T12:24:18.113Z,7.00
2018-04-29T12:26:46.301Z,5.67
2018-04-29T12:29:14.384Z,6.30
2018-04-29T12:31:42.531Z,5.17
2018-04-29T12:34:10.572Z,5.80
2018-04-29T12:36:38.674Z,5.50
2018-04-29T12:39:06.721Z,5.27
2018-04-29T12:41:34.883Z,5.20
2018-04-29T12:44:02.989Z,4.90
2018-04-29T12:46:31.077Z,4.43
2018-04-29T12:48:59.179Z,5.63
2018-04-29T12:51:27.251Z,5.40
2018-04-29T12:53:55.278Z,5.13
2018-04-29T12:56:23.392Z,4.87
2018-04-29T12:58:51.419Z,4.60
2018-04-29T13:01:19.481Z,4.80
2018-04-29T13:03:47.526Z,4.23
2018-04-29T13:06:16.361Z,4.17
2018-04-29T13:08:44.405Z,5.00
2018-04-29T13:11:12.475Z,4.07
2018-04-29T13:13:40.535Z,4.77
2018-04-29T13:16:09.321Z,5.17
2018-04-29T13:18:37.392Z,5.57
2018-04-29T13:21:05.496Z,4.63
2018-04-29T13:23:33.671Z,5.00
2018-04-29T13:26:01.729Z,4.80
2018-04-29T13:28:29.802Z,4.60
2018-04-29T13:30:57.837Z,4.67
2018-04-29T13:33:26.646Z,4.60
2018-04-29T13:35:54.748Z,4.17
2018-04-29T13:38:22.833Z,4.00
2018-04-29T13:40:50.842Z,3.57
2018-04-29T13:43:19.782Z,4.50
2018-04-29T13:45:47.867Z,4.50
2018-04-29T13:48:16.673Z,4.37
2018-04-29T13:50:44.740Z,4.17
2018-04-29T13:53:12.770Z,3.27
2018-04-29T13:55:40.829Z,4.40
2018-04-29T13:58:08.924Z,3.90
2018-04-29T14:00:37.022Z,5.30
2018-04-29T14:03:05.070Z,4.30
2018-04-29T14:05:33.169Z,3.83
2018-04-29T14:08:01.222Z,3.60
2018-04-29T14:10:29.284Z,4.73
2018-04-29T14:12:57.420Z,4.13
2018-04-29T14:15:25.425Z,4.80
2018-04-29T14:17:53.483Z,5.00
2018-04-29T14:20:21.630Z,5.60
2018-04-29T14:22:49.729Z,4.40
2018-04-29T14:25:17.822Z,4.10
2018-04-29T14:27:45.889Z,3.70
2018-04-29T14:30:13.932Z,4.93
2018-04-29T14:32:42.091Z,6.50
2018-04-29T14:35:11.638Z,4.53
2018-04-29T14:37:39.827Z,6.00
2018-04-29T14:40:07.864Z,5.77
2018-04-29T14:42:35.923Z,5.50
2018-04-29T14:45:04.019Z,4.83
2018-04-29T14:47:32.063Z,5.87
2018-04-29T14:50:00.110Z,5.40
2018-04-29T14:52:29.796Z,5.00
2018-04-29T14:54:57.883Z,5.17
2018-04-29T14:57:26.014Z,5.30
2018-04-29T14:59:54.088Z,5.70
2018-04-29T15:02:22.171Z,6.90
2018-04-29T15:04:50.208Z,6.57
2018-04-29T15:07:18.295Z,5.40
2018-04-29T15:09:46.362Z,6.40
2018-04-29T15:12:14.462Z,5.60
2018-04-29T15:14:42.580Z,5.80
2018-04-29T15:17:11.409Z,6.70
2018-04-29T15:19:48.400Z,5.10
2018-04-29T15:22:16.431Z,5.17
2018-04-29T15:24:44.505Z,5.67
2018-04-29T15:27:12.553Z,5.33
2018-04-29T15:29:41.374Z,5.13
2018-04-29T15:32:09.432Z,6.47
2018-04-29T15:34:37.531Z,5.70
2018-04-29T15:37:06.613Z,5.77
2018-04-29T15:39:34.695Z,5.50
2018-04-29T15:42:02.741Z,5.30
2018-04-29T15:44:30.838Z,5.40
2018-04-29T15:46:58.873Z,5.47
2018-04-29T15:49:28.176Z,6.37
2018-04-29T15:51:56.574Z,6.33
2018-04-29T15:54:24.638Z,6.30
2018-04-29T15:56:52.700Z,5.50
2018-04-29T15:59:20.768Z,5.90
2018-04-29T16:01:49.615Z,6.53
2018-04-29T16:04:17.664Z,7.57
2018-04-29T16:06:45.813Z,7.37
2018-04-29T16:09:13.881Z,6.63
2018-04-29T16:11:41.979Z,7.00
2018-04-29T16:14:10.758Z,7.57
2018-04-29T16:16:38.811Z,6.60
2018-04-29T16:19:06.883Z,6.50
2018-04-29T16:21:34.933Z,7.77
2018-04-29T16:24:03.062Z,6.33
2018-04-29T16:26:31.128Z,7.60
2018-04-29T16:28:59.158Z,8.03
2018-04-29T16:31:27.994Z,9.23
2018-04-29T16:33:56.085Z,7.83
2018-04-29T16:36:24.152Z,7.63
2018-04-29T16:38:52.228Z,6.70
2018-04-29T16:41:20.308Z,6.40
2018-04-29T16:43:49.890Z,6.93
2018-04-29T16:46:17.967Z,6.90
2018-04-29T16:48:45.998Z,6.73
2018-04-29T16:51:14.091Z,6.83
2018-04-29T16:53:42.170Z,6.07
2018-04-29T16:56:10.207Z,7.33
2018-04-29T16:58:38.373Z,7.00
2018-04-29T17:01:06.410Z,6.50
2018-04-29T17:03:36.357Z,7.00
2018-04-29T17:06:05.184Z,7.03
2018-04-29T17:08:33.250Z,6.90
2018-04-29T17:11:01.328Z,6.77
2018-04-29T17:13:29.362Z,6.53
2018-04-29T17:15:57.486Z,6.70
2018-04-29T17:18:25.545Z,8.50
2018-04-29T17:20:53.578Z,6.00
2018-04-29T17:23:21.630Z,5.83
2018-04-29T17:25:50.436Z,6.67
2018-04-29T17:28:19.360Z,5.53
2018-04-29T17:30:47.437Z,6.50
2018-04-29T17:33:15.497Z,6.00
2018-04-29T17:35:43.600Z,7.87
2018-04-29T17:38:11.694Z,10.27
2018-04-29T17:40:39.706Z,9.57
2018-04-29T17:43:07.793Z,7.50
2018-04-29T17:45:35.887Z,7.13
2018-04-29T17:48:03.930Z,6.70
2018-04-29T17:50:32.749Z,5.20
2018-04-29T17:53:00.797Z,7.40
2018-04-29T17:55:28.893Z,5.37
2018-04-29T17:57:56.956Z,6.37
2018-04-29T18:00:25.023Z,5.73
2018-04-29T18:02:53.067Z,6.20
2018-04-29T18:05:21.792Z,6.30
2018-04-29T18:07:49.846Z,5.87
2018-04-29T18:10:17.906Z,5.00
2018-04-29T18:12:46.010Z,5.40
2018-04-29T18:15:14.495Z,5.50
2018-04-29T18:17:42.555Z,6.50
2018-04-29T18:20:10.609Z,5.30
2018-04-29T18:22:39.429Z,6.50
2018-04-29T18:25:07.579Z,6.27
2018-04-29T18:27:35.659Z,5.90
2018-04-29T18:30:04.090Z,6.53
2018-04-29T18:32:32.135Z,6.03
2018-04-29T18:35:00.958Z,5.60
2018-04-29T18:37:29.059Z,7.17
2018-04-29T18:39:57.105Z,6.77
2018-04-29T18:42:25.175Z,6.47
2018-04-29T18:44:53.327Z,7.23
2018-04-29T18:47:21.350Z,7.77
2018-04-29T18:49:49.407Z,7.87
2018-04-29T18:52:17.509Z,6.83
2018-04-29T18:54:45.541Z,5.97
2018-04-29T18:57:13.577Z,7.20
2018-04-29T18:59:41.665Z,6.97
2018-04-29T19:02:09.714Z,5.93
2018-04-29T19:04:37.743Z,6.03
2018-04-29T19:07:06.590Z,5.50
2018-04-29T19:09:34.642Z,6.50
2018-04-29T19:12:02.687Z,7.07
2018-04-29T19:14:31.945Z,7.17
2018-04-29T19:17:00.015Z,6.23
2018-04-29T19:19:28.074Z,6.80
2018-04-29T19:21:56.159Z,5.50
2018-04-29T19:24:24.254Z,7.00
2018-04-29T19:26:52.318Z,6.30
2018-04-29T19:29:20.379Z,7.03
2018-04-29T19:31:48.466Z,6.63
2018-04-29T19:34:16.498Z,7.27
2018-04-29T19:36:44.576Z,6.50
2018-04-29T19:39:12.671Z,7.70
2018-04-29T19:41:40.707Z,7.70
2018-04-29T19:44:09.553Z,6.47
2018-04-29T19:46:37.616Z,7.83
2018-04-29T19:49:05.698Z,8.43
2018-04-29T19:51:33.751Z,8.33
2018-04-29T19:54:01.885Z,8.63
2018-04-29T19:56:29.912Z,8.70
2018-04-29T19:58:57.938Z,8.07
2018-04-29T20:01:26.020Z,9.00
2018-04-29T20:03:54.081Z,8.30
2018-04-29T20:06:22.159Z,8.30
2018-04-29T20:08:51.077Z,7.47
2018-04-29T20:11:19.122Z,7.33
2018-04-29T20:13:47.186Z,8.90
2018-04-29T20:16:15.287Z,6.67
2018-04-29T20:18:43.322Z,5.70
2018-04-29T20:21:11.397Z,5.43
2018-04-29T20:23:39.446Z,7.20
2018-04-29T20:26:08.278Z,7.40
2018-04-29T20:28:36.320Z,7.07
2018-04-29T20:31:04.416Z,6.30
2018-04-29T20:33:32.468Z,6.33
2018-04-29T20:36:00.549Z,6.40
2018-04-29T20:38:28.584Z,6.20
2018-04-29T20:40:56.644Z,5.77
2018-04-29T20:43:24.716Z,5.63
2018-04-29T20:45:52.758Z,6.07
2018-04-29T20:48:20.859Z,6.20
2018-04-29T20:50:48.903Z,5.57
2018-04-29T20:53:16.925Z,6.23
2018-04-29T20:55:45.787Z,8.10
2018-04-29T20:58:13.842Z,8.47
2018-04-29T21:00:41.894Z,9.17
2018-04-29T21:03:09.943Z,9.03
2018-04-29T21:05:38.003Z,7.80
2018-04-29T21:08:06.914Z,7.13
2018-04-29T21:10:34.886Z,8.83
2018-04-29T21:13:02.985Z,7.00
2018-04-29T21:15:31.053Z,7.30
2018-04-29T21:17:59.091Z,6.80
2018-04-29T21:20:27.170Z,7.27
2018-04-29T21:22:55.216Z,7.60
2018-04-29T21:25:24.790Z,7.37
2018-04-29T21:27:54.399Z,6.57
2018-04-29T21:30:23.587Z,6.37
2018-04-29T21:32:51.661Z,6.23
2018-04-29T21:35:19.726Z,6.03
2018-04-29T21:37:48.151Z,5.87
2018-04-29T21:40:16.951Z,5.70
2018-04-29T21:42:45.003Z,5.93
2018-04-29T21:45:13.840Z,7.27
2018-04-29T21:47:41.943Z,7.13
2018-04-29T21:50:10.442Z,6.83
2018-04-29T21:52:39.287Z,8.20
2018-04-29T21:55:07.371Z,6.97
2018-04-29T21:57:36.221Z,7.20
2018-04-29T22:00:04.309Z,6.60
2018-04-29T22:02:32.392Z,6.30
2018-04-29T22:05:00.414Z,7.10
2018-04-29T22:07:29.257Z,6.20
2018-04-29T22:09:57.335Z,6.80
2018-04-29T22:12:25.438Z,7.27
2018-04-29T22:14:54.083Z,6.83
2018-04-29T22:17:22.185Z,5.80
2018-04-29T22:19:50.207Z,6.67
2018-04-29T22:22:18.286Z,6.00
2018-04-29T22:24:46.389Z,6.30
2018-04-29T22:27:14.553Z,6.17
2018-04-29T22:29:42.627Z,6.60
2018-04-29T22:32:10.710Z,6.10
2018-04-29T22:34:38.791Z,6.20
2018-04-29T22:37:06.826Z,6.30
2018-04-29T22:39:34.887Z,6.67
2018-04-29T22:42:03.020Z,6.50
2018-04-29T22:44:31.141Z,6.93
2018-04-29T22:46:59.185Z,6.27
2018-04-29T22:49:27.650Z,6.47
2018-04-29T22:51:55.687Z,6.00
2018-04-29T22:54:23.737Z,6.77
2018-04-29T22:56:51.779Z,6.47
2018-04-29T22:59:19.893Z,7.10
2018-04-29T23:01:47.963Z,6.43
2018-04-29T23:04:16.128Z,6.20
2018-04-29T23:06:44.949Z,6.80
2018-04-29T23:09:13.796Z,6.53
2018-04-29T23:11:41.874Z,6.17
2018-04-29T23:14:10.341Z,6.57
2018-04-29T23:16:38.560Z,6.23
2018-04-29T23:19:06.660Z,7.37
2018-04-29T23:21:34.683Z,6.90
2018-04-29T23:24:02.757Z,7.10
2018-04-29T23:26:30.832Z,6.10
2018-04-29T23:28:58.875Z,6.97
2018-04-29T23:31:26.949Z,6.40
2018-04-29T23:33:55.009Z,6.67
2018-04-29T23:36:23.089Z,6.70
2018-04-29T23:38:51.130Z,6.27
2018-04-29T23:41:19.173Z,7.13
2018-04-29T23:43:47.220Z,6.63
2018-04-29T23:46:15.283Z,6.63
2018-04-29T23:48:43.339Z,6.10
2018-04-29T23:51:11.387Z,7.10
2018-04-29T23:53:39.501Z,6.40
2018-04-29T23:56:07.633Z,7.07
2018-04-29T23:58:35.686Z,7.20
